Time;durP1;ratioP1;P1;durP2;ratioP2;P2;SDS_P1;SDS_P2;PMS_P1;PMS_P2;Temp;Humidity;BMP_temperature;BMP_pressure;BME280_temperature;BME280_humidity;BME280_pressure;Samples;Min_cycle;Max_cycle;Signal;HPM_P1;HPM_P2
2021/12/02 00:01:20;;;;;;;12.60;11.60;;;;;;;-0.36;89.56;92327.59;5068909;28;20236;-76
2021/12/02 00:03:47;;;;;;;13.77;12.47;;;;;;;-0.14;90.28;92378.13;5071820;28;20192;-76
2021/12/02 00:06:15;;;;;;;13.90;12.70;;;;;;;-0.29;91.36;92353.91;5071182;28;20212;-76
2021/12/02 00:08:41;;;;;;;14.53;13.33;;;;;;;-0.15;90.89;92383.47;5070673;28;20186;-76
2021/12/02 00:11:07;;;;;;;15.07;13.87;;;;;;;-0.32;91.64;92374.84;5071472;28;20257;-76
2021/12/02 00:14:09;;;;;;;14.43;13.07;;;;;;;-0.26;92.67;92373.97;5070926;28;20211;-76
2021/12/02 00:16:37;;;;;;;14.37;12.93;;;;;;;-0.25;91.39;92385.81;5066555;28;20222;-76
2021/12/02 00:21:54;;;;;;;17.90;13.97;;;;;;;-0.27;90.55;92398.06;5064412;28;20252;-76
2021/12/02 00:24:23;;;;;;;16.40;14.87;;;;;;;-0.26;90.88;92399.63;5050153;28;20225;-76
2021/12/02 00:26:50;;;;;;;16.03;14.50;;;;;;;-0.17;90.09;92393.16;5052198;28;20233;-75
2021/12/02 00:29:18;;;;;;;16.77;15.20;;;;;;;-0.25;90.32;92378.13;5051053;28;20212;-76
2021/12/02 00:31:45;;;;;;;15.47;14.07;;;;;;;-0.35;90.59;92376.09;5049482;28;20229;-76
2021/12/02 00:34:11;;;;;;;14.30;13.13;;;;;;;-0.54;90.53;92372.00;5050194;28;20182;-76
2021/12/02 00:36:38;;;;;;;14.83;13.63;;;;;;;-0.46;91.75;92393.97;5052896;28;20276;-76
2021/12/02 00:39:17;;;;;;;14.87;13.60;;;;;;;-0.29;90.90;92394.94;5070860;28;20201;-76
2021/12/02 00:41:44;;;;;;;14.90;13.60;;;;;;;-0.21;91.62;92382.59;5070954;28;20239;-76
2021/12/02 00:44:10;;;;;;;15.77;14.13;;;;;;;-0.12;90.91;92383.03;5068908;28;20194;-76
2021/12/02 00:46:36;;;;;;;16.20;14.57;;;;;;;-0.18;90.89;92383.91;5069448;28;20244;-76
2021/12/02 00:49:04;;;;;;;15.67;14.17;;;;;;;-0.17;91.67;92388.03;5070905;28;20201;-75
2021/12/02 00:51:32;;;;;;;17.77;16.17;;;;;;;-0.31;91.12;92371.28;5068975;28;20239;-75
2021/12/02 00:54:05;;;;;;;18.63;16.83;;;;;;;-0.09;91.27;92369.78;5078893;28;20186;-76
2021/12/02 00:56:30;;;;;;;18.47;16.70;;;;;;;-0.18;91.16;92381.34;5069599;28;20225;-76
2021/12/02 00:58:56;;;;;;;17.40;14.87;;;;;;;-0.20;91.24;92375.66;5071840;28;20223;-76
2021/12/02 01:01:24;;;;;;;14.63;13.13;;;;;;;-0.23;90.78;92382.03;5067588;28;20288;-75
2021/12/02 01:03:54;;;;;;;15.60;13.97;;;;;;;-0.37;90.89;92369.59;5068750;28;20212;-75
2021/12/02 01:06:20;;;;;;;15.93;14.57;;;;;;;-0.28;90.58;92386.25;5068239;28;20185;-76
2021/12/02 01:08:46;;;;;;;15.17;14.07;;;;;;;-0.35;90.33;92372.72;5071442;28;20193;-76
2021/12/02 01:11:12;;;;;;;13.70;12.73;;;;;;;-0.42;90.67;92365.13;5069683;28;20239;-76
2021/12/02 01:13:38;;;;;;;13.90;12.67;;;;;;;-0.48;90.74;92395.97;5071726;28;20197;-76
2021/12/02 01:16:03;;;;;;;16.20;14.83;;;;;;;-0.32;90.55;92390.25;5069428;28;20234;-77
2021/12/02 01:18:29;;;;;;;13.77;12.67;;;;;;;-0.43;91.81;92378.16;5069012;28;20189;-76
2021/12/02 01:20:55;;;;;;;14.00;12.90;;;;;;;-0.45;91.58;92375.06;5070240;28;20196;-76
2021/12/02 01:23:23;;;;;;;14.77;13.33;;;;;;;-0.30;91.23;92378.00;5068599;28;20216;-76
2021/12/02 01:25:54;;;;;;;12.53;11.63;;;;;;;-0.40;91.41;92372.59;5070175;28;20192;-76
2021/12/02 01:28:22;;;;;;;12.40;11.60;;;;;;;-0.33;91.28;92381.00;5068162;28;20217;-76
2021/12/02 01:30:53;;;;;;;13.10;12.30;;;;;;;-0.40;90.92;92393.09;5069390;28;20193;-76
2021/12/02 01:33:24;;;;;;;13.80;12.67;;;;;;;-0.37;91.97;92382.41;5067561;28;20271;-76
2021/12/02 01:35:54;;;;;;;12.90;11.90;;;;;;;-0.48;91.60;92390.84;5070643;28;20196;-77
2021/12/02 01:38:22;;;;;;;15.90;14.60;;;;;;;-0.43;91.10;92398.66;5067002;28;20225;-77
2021/12/02 01:40:47;;;;;;;16.90;15.23;;;;;;;-0.49;92.02;92407.22;5069334;28;20190;-77
2021/12/02 01:43:16;;;;;;;17.23;15.63;;;;;;;-0.32;92.64;92406.41;5074629;28;20225;-76
2021/12/02 01:45:41;;;;;;;17.20;15.57;;;;;;;-0.11;92.48;92393.09;5067913;28;20192;-76
2021/12/02 01:48:14;;;;;;;17.93;15.97;;;;;;;-0.09;92.27;92387.72;5069621;28;20289;-76
2021/12/02 01:50:40;;;;;;;19.17;17.13;;;;;;;-0.15;91.34;92379.16;5069266;28;20193;-76
2021/12/02 01:53:06;;;;;;;18.07;16.27;;;;;;;-0.32;91.86;92365.38;5068821;28;20226;-76
2021/12/02 01:55:37;;;;;;;18.77;15.73;;;;;;;-0.31;91.69;92371.28;5069845;28;20180;-76
2021/12/02 01:58:05;;;;;;;16.27;14.80;;;;;;;-0.22;91.25;92378.44;5068228;28;20217;-76
2021/12/02 02:00:33;;;;;;;17.43;15.37;;;;;;;-0.42;90.76;92365.13;5069918;28;20225;-76
2021/12/02 02:03:02;;;;;;;16.50;14.80;;;;;;;-0.32;91.01;92359.47;5069239;28;20229;-76
2021/12/02 02:05:30;;;;;;;17.27;15.83;;;;;;;-0.42;90.89;92366.91;5068432;28;20200;-77
2021/12/02 02:08:02;;;;;;;16.57;15.07;;;;;;;-0.33;90.53;92339.97;5069029;28;20226;-77
2021/12/02 02:10:31;;;;;;;16.53;14.83;;;;;;;-0.50;90.75;92352.59;5067646;28;20902;-77
2021/12/02 02:13:00;;;;;;;18.20;16.40;;;;;;;-0.63;92.27;92346.88;5066160;28;20232;-76
2021/12/02 02:15:26;;;;;;;19.23;16.43;;;;;;;-0.54;92.12;92313.03;5070133;28;20197;-76
2021/12/02 02:18:04;;;;;;;15.83;14.43;;;;;;;-0.37;90.95;92331.13;5060304;28;20232;-76
2021/12/02 02:21:03;;;;;;;16.43;14.73;;;;;;;-0.58;91.42;92334.22;5068085;28;20201;-76
2021/12/02 02:23:37;;;;;;;15.83;14.20;;;;;;;-0.41;91.39;92342.84;5068746;28;20236;-76
2021/12/02 02:26:03;;;;;;;14.30;13.13;;;;;;;-0.44;90.47;92336.38;5068611;28;20188;-76
2021/12/02 02:28:29;;;;;;;15.77;14.30;;;;;;;-0.31;90.34;92320.00;5068757;28;20185;-76
2021/12/02 02:30:55;;;;;;;15.10;13.87;;;;;;;-0.32;90.46;92329.50;5068195;28;20827;-76
2021/12/02 02:33:22;;;;;;;16.13;14.63;;;;;;;-0.18;90.41;92346.25;5068153;28;20231;-77
2021/12/02 02:35:48;;;;;;;16.63;15.03;;;;;;;-0.08;90.35;92345.69;5070668;28;20190;-77
2021/12/02 02:38:14;;;;;;;17.17;15.53;;;;;;;0.03;90.31;92348.28;5069024;28;20227;-76
2021/12/02 02:40:43;;;;;;;18.20;16.63;;;;;;;-0.26;90.96;92344.00;5067911;28;20221;-76
2021/12/02 02:43:10;;;;;;;16.87;15.47;;;;;;;-0.37;90.83;92341.38;5068860;28;20213;-76
2021/12/02 02:45:37;;;;;;;17.43;15.67;;;;;;;-0.05;90.35;92337.56;5069472;28;20193;-76
2021/12/02 02:48:04;;;;;;;17.97;16.37;;;;;;;0.00;88.42;92335.88;5066753;28;20252;-76
2021/12/02 02:50:31;;;;;;;16.87;15.07;;;;;;;-0.24;89.11;92330.94;5068164;28;20196;-76
2021/12/02 02:53:13;;;;;;;18.07;16.40;;;;;;;-0.30;90.06;92358.25;5067800;28;20233;-76
2021/12/02 02:55:41;;;;;;;17.40;15.60;;;;;;;-0.22;89.80;92362.28;5070601;28;20186;-76
2021/12/02 03:00:42;;;;;;;16.57;14.87;;;;;;;-0.35;89.06;92362.47;5072638;28;20363;-76
2021/12/02 03:06:02;;;;;;;18.10;16.40;;;;;;;-0.39;88.49;92326.22;5073929;28;21038;-76
2021/12/02 03:08:37;;;;;;;17.77;16.03;;;;;;;-0.41;89.21;92330.81;5073016;28;20213;-76
2021/12/02 03:11:04;;;;;;;17.17;15.60;;;;;;;-0.37;89.51;92316.53;5070485;28;20264;-76
2021/12/02 03:13:40;;;;;;;17.47;15.80;;;;;;;-0.45;89.64;92309.16;5072474;28;20220;-76
2021/12/02 03:18:52;;;;;;;15.03;13.63;;;;;;;-0.45;89.99;92344.28;5071983;28;20255;-77
2021/12/02 03:21:22;;;;;;;16.27;14.77;;;;;;;-0.60;89.69;92331.06;5071760;28;20263;-76
2021/12/02 03:23:52;;;;;;;14.63;13.57;;;;;;;-0.71;88.66;92311.31;5072722;28;20188;-76
2021/12/02 03:26:18;;;;;;;15.57;14.47;;;;;;;-0.66;88.35;92347.31;5069859;28;20186;-76
2021/12/02 03:28:43;;;;;;;15.70;13.93;;;;;;;-0.78;88.66;92319.06;5072971;28;20224;-76
2021/12/02 03:31:09;;;;;;;15.23;13.93;;;;;;;-0.53;89.30;92316.41;5071222;28;20189;-77
2021/12/02 03:33:35;;;;;;;16.00;14.90;;;;;;;-0.47;88.48;92336.03;5071094;28;20193;-76
2021/12/02 03:36:00;;;;;;;15.57;14.00;;;;;;;-0.48;89.19;92316.50;5072222;28;20186;-76
2021/12/02 03:38:26;;;;;;;16.83;15.27;;;;;;;-0.53;89.05;92321.53;5071666;28;20228;-76
2021/12/02 03:40:51;;;;;;;16.17;14.77;;;;;;;-0.36;89.60;92333.47;5071501;28;20193;-76
2021/12/02 03:43:17;;;;;;;15.90;14.50;;;;;;;-0.19;89.25;92323.38;5070967;28;21350;-76
2021/12/02 03:45:42;;;;;;;17.33;15.83;;;;;;;-0.34;90.20;92317.88;5069391;28;20706;-76
2021/12/02 03:48:08;;;;;;;16.40;14.97;;;;;;;-0.28;89.48;92322.91;5071996;28;20244;-76
2021/12/02 03:50:33;;;;;;;14.60;13.40;;;;;;;-0.42;90.83;92324.09;5071518;28;20201;-78
2021/12/02 03:52:59;;;;;;;15.17;13.67;;;;;;;-0.25;89.99;92334.53;5071555;28;20232;-77
2021/12/02 03:55:24;;;;;;;16.07;14.57;;;;;;;-0.43;89.16;92319.19;5072964;28;20309;-77
2021/12/02 03:57:50;;;;;;;14.43;13.43;;;;;;;-0.46;89.07;92322.19;5070781;28;20222;-77
2021/12/02 04:00:16;;;;;;;14.20;13.20;;;;;;;-0.53;88.55;92322.28;5071699;28;20213;-77
2021/12/02 04:02:41;;;;;;;15.60;14.23;;;;;;;-0.39;90.12;92312.66;5071169;28;20738;-77
2021/12/02 04:05:07;;;;;;;13.17;12.07;;;;;;;-0.21;89.20;92302.28;5071206;28;20688;-77
2021/12/02 04:07:33;;;;;;;16.07;14.80;;;;;;;-0.11;89.06;92290.47;5069858;28;20221;-77
2021/12/02 04:09:59;;;;;;;14.83;13.43;;;;;;;0.06;88.16;92279.56;5070324;28;20227;-77
2021/12/02 04:15:37;;;;;;;14.77;13.10;;;;;;;-0.05;87.86;92279.31;5061571;28;20196;-77
2021/12/02 04:17:59;;;;;;;15.97;14.53;;;;;;;0.06;86.37;92295.75;5069241;28;20289;-77
2021/12/02 04:20:26;;;;;;;18.40;16.60;;;;;;;0.08;86.73;92301.41;5070535;28;20197;-77
2021/12/02 04:22:52;;;;;;;18.47;16.57;;;;;;;-0.03;87.78;92297.84;5071055;28;20232;-76
2021/12/02 04:25:19;;;;;;;16.70;15.30;;;;;;;0.08;87.40;92314.25;5069339;28;20283;-77
2021/12/02 04:27:46;;;;;;;16.73;15.20;;;;;;;0.12;86.66;92310.25;5070303;28;20240;-82
2021/12/02 04:30:13;;;;;;;15.87;14.37;;;;;;;0.02;87.99;92315.13;5070474;28;20204;-85
2021/12/02 04:32:40;;;;;;;18.23;16.43;;;;;;;0.03;87.49;92311.59;5070075;28;20904;-85
2021/12/02 04:35:06;;;;;;;16.57;15.07;;;;;;;-0.14;88.04;92311.44;5071019;28;20205;-85
2021/12/02 04:37:32;;;;;;;17.67;14.60;;;;;;;-0.26;88.93;92305.53;5070171;28;20221;-85
2021/12/02 04:39:58;;;;;;;16.87;15.30;;;;;;;-0.03;87.95;92308.09;5069885;28;21646;-85
2021/12/02 04:42:23;;;;;;;16.93;15.37;;;;;;;-0.19;87.82;92313.13;5069877;28;20277;-85
2021/12/02 04:44:49;;;;;;;16.97;15.17;;;;;;;-0.15;88.52;92309.09;5067616;28;20205;-72
2021/12/02 04:47:15;;;;;;;16.80;15.40;;;;;;;-0.57;88.65;92287.06;5062990;28;20210;-77
2021/12/02 04:49:41;;;;;;;16.93;15.27;;;;;;;-0.39;88.62;92315.22;5066275;28;20253;-73
2021/12/02 04:52:07;;;;;;;17.10;15.67;;;;;;;-0.28;88.69;92301.63;5066398;28;20237;-74
2021/12/02 04:54:33;;;;;;;17.63;15.90;;;;;;;-0.22;88.71;92287.91;5067620;28;20185;-74
2021/12/02 04:56:59;;;;;;;17.30;15.50;;;;;;;-0.27;88.15;92291.16;5066740;28;20213;-74
2021/12/02 04:59:24;;;;;;;18.87;16.93;;;;;;;-0.52;89.12;92271.81;5069330;28;20237;-75
2021/12/02 05:01:49;;;;;;;21.37;15.10;;;;;;;-0.38;89.62;92284.22;5062539;28;20233;-74
2021/12/02 05:04:15;;;;;;;16.57;15.10;;;;;;;-0.33;88.40;92276.63;5068332;28;20260;-72
2021/12/02 05:06:40;;;;;;;16.83;15.17;;;;;;;-0.50;88.26;92264.69;5069090;28;20224;-73
2021/12/02 05:09:05;;;;;;;18.13;16.30;;;;;;;-0.67;89.48;92268.88;5067017;28;20186;-71
2021/12/02 05:11:31;;;;;;;17.60;15.80;;;;;;;-0.51;89.64;92270.81;5067364;28;20233;-82
2021/12/02 05:13:56;;;;;;;18.77;15.90;;;;;;;-0.29;89.08;92297.47;5080454;28;20173;-78
2021/12/02 05:16:22;;;;;;;19.97;16.17;;;;;;;-0.28;88.99;92283.69;5066683;28;21029;-74
2021/12/02 05:18:47;;;;;;;18.57;16.83;;;;;;;-0.67;89.00;92258.63;5066159;28;20173;-76
2021/12/02 05:21:13;;;;;;;17.90;16.13;;;;;;;-0.38;89.33;92276.53;5066785;28;20208;-79
2021/12/02 05:23:38;;;;;;;17.90;16.00;;;;;;;-0.38;88.68;92278.31;5070689;28;20193;-79
2021/12/02 05:26:04;;;;;;;17.73;15.93;;;;;;;-0.20;88.06;92283.31;5068387;28;20174;-79
2021/12/02 05:28:29;;;;;;;18.20;16.20;;;;;;;-0.42;88.64;92266.94;5061333;28;20194;-78
2021/12/02 05:30:55;;;;;;;17.27;15.60;;;;;;;-0.31;88.45;92243.06;5065682;28;20182;-81
2021/12/02 05:33:20;;;;;;;17.27;15.47;;;;;;;-0.14;89.46;92280.66;5063231;28;20213;-78
2021/12/02 05:35:46;;;;;;;17.63;15.93;;;;;;;-0.21;89.64;92279.22;5066408;28;20212;-78
2021/12/02 05:38:12;;;;;;;15.57;14.27;;;;;;;-0.22;88.57;92282.78;5065515;28;20209;-79
2021/12/02 05:40:37;;;;;;;14.77;13.57;;;;;;;-0.33;87.91;92270.72;5068114;28;20197;-79
2021/12/02 05:43:03;;;;;;;14.80;13.43;;;;;;;-0.38;88.98;92273.97;5068685;28;20237;-79
2021/12/02 05:45:29;;;;;;;15.60;14.10;;;;;;;-0.34;88.19;92262.25;5066569;28;20185;-79
2021/12/02 05:47:54;;;;;;;14.63;13.43;;;;;;;-0.27;87.69;92269.84;5067434;28;20221;-79
2021/12/02 05:50:20;;;;;;;14.70;13.17;;;;;;;-0.36;87.38;92240.41;5064245;28;20182;-75
2021/12/02 05:52:45;;;;;;;14.53;13.17;;;;;;;-0.18;87.88;92268.50;5064065;28;20728;-75
2021/12/02 05:55:11;;;;;;;16.30;14.87;;;;;;;-0.35;88.03;92234.25;5066065;28;20212;-74
2021/12/02 05:57:36;;;;;;;13.77;12.60;;;;;;;-0.19;87.78;92272.09;5063172;28;20317;-76
2021/12/02 06:00:07;;;;;;;13.97;12.83;;;;;;;-0.17;87.91;92267.50;5065479;28;20228;-75
2021/12/02 06:02:35;;;;;;;14.47;13.17;;;;;;;-0.24;87.15;92261.72;5062812;28;20251;-76
2021/12/02 06:05:00;;;;;;;13.70;12.70;;;;;;;-0.07;87.76;92280.56;5065631;28;20866;-75
2021/12/02 06:07:26;;;;;;;15.67;14.27;;;;;;;-0.36;87.27;92245.53;5065642;28;20233;-73
2021/12/02 06:09:53;;;;;;;15.07;13.70;;;;;;;-0.14;87.59;92279.91;5064777;28;20189;-74
2021/12/02 06:12:18;;;;;;;15.67;14.17;;;;;;;-0.23;87.95;92245.31;5067627;28;20703;-74
2021/12/02 06:14:44;;;;;;;19.53;15.83;;;;;;;0.04;87.41;92282.34;5067439;28;20314;-77
2021/12/02 06:17:09;;;;;;;24.40;17.83;;;;;;;-0.01;87.32;92271.97;5067194;28;20251;-74
2021/12/02 06:19:35;;;;;;;23.33;18.50;;;;;;;0.16;86.84;92280.56;5066485;28;20200;-76
2021/12/02 06:22:02;;;;;;;20.43;14.77;;;;;;;0.21;87.22;92278.09;5064706;28;20307;-77
2021/12/02 06:24:41;;;;;;;16.20;14.70;;;;;;;0.19;86.34;92290.38;5067082;28;20231;-78
2021/12/02 06:27:07;;;;;;;14.43;13.43;;;;;;;0.33;86.22;92296.06;5064966;28;20229;-77
2021/12/02 06:29:32;;;;;;;16.13;14.70;;;;;;;0.42;85.74;92294.72;5068702;28;20227;-76
2021/12/02 06:31:58;;;;;;;20.97;18.97;;;;;;;0.54;85.22;92296.28;5069690;28;20293;-77
2021/12/02 06:34:23;;;;;;;17.00;15.27;;;;;;;0.55;85.50;92295.25;5070447;28;20190;-77
2021/12/02 06:36:49;;;;;;;18.90;14.13;;;;;;;0.48;85.47;92299.75;5088050;28;20221;-75
2021/12/02 06:39:14;;;;;;;15.33;14.13;;;;;;;0.43;86.43;92294.50;5069866;28;20193;-77
2021/12/02 06:41:39;;;;;;;14.83;13.83;;;;;;;0.56;85.46;92299.38;5071587;28;20233;-77
2021/12/02 06:44:05;;;;;;;16.37;14.13;;;;;;;0.44;86.18;92302.97;5070001;28;20185;-77
2021/12/02 06:46:31;;;;;;;14.53;13.33;;;;;;;0.49;86.12;92278.19;5069770;28;20233;-76
2021/12/02 06:48:56;;;;;;;13.80;12.70;;;;;;;0.65;86.20;92300.59;5070710;28;20197;-76
2021/12/02 06:51:22;;;;;;;15.43;14.20;;;;;;;0.74;86.07;92294.09;5068447;28;20229;-76
2021/12/02 06:53:49;;;;;;;13.70;12.60;;;;;;;0.81;85.51;92294.75;5069484;28;20194;-76
2021/12/02 06:56:14;;;;;;;16.50;14.87;;;;;;;0.89;85.26;92298.75;5068976;28;20253;-76
2021/12/02 06:58:40;;;;;;;18.37;16.60;;;;;;;1.00;84.99;92296.16;5065532;28;20189;-76
2021/12/02 07:01:05;;;;;;;37.33;22.43;;;;;;;0.92;84.26;92270.06;5068455;28;20271;-76
2021/12/02 07:03:30;;;;;;;22.73;19.07;;;;;;;1.13;83.87;92267.63;5071211;28;20208;-76
2021/12/02 07:05:56;;;;;;;21.57;17.80;;;;;;;1.17;83.95;92267.91;5068133;28;20185;-76
2021/12/02 07:08:22;;;;;;;21.33;17.07;;;;;;;1.32;82.77;92268.97;5079099;28;20249;-76
2021/12/02 07:10:47;;;;;;;20.67;17.07;;;;;;;1.38;82.04;92275.78;5071363;28;20352;-80
2021/12/02 07:13:13;;;;;;;22.80;17.40;;;;;;;1.52;82.41;92295.06;5067892;28;20233;-77
2021/12/02 07:15:50;;;;;;;19.90;17.93;;;;;;;1.57;81.96;92294.34;5067351;28;20272;-78
2021/12/02 07:18:16;;;;;;;28.50;18.93;;;;;;;1.54;82.33;92287.88;5064863;28;20362;-78
2021/12/02 07:20:44;;;;;;;25.80;18.03;;;;;;;1.61;81.78;92290.31;5066925;28;20198;-78
2021/12/02 07:23:10;;;;;;;26.20;19.13;;;;;;;1.57;81.90;92307.97;5068095;28;20232;-77
2021/12/02 07:25:39;;;;;;;24.57;18.73;;;;;;;1.71;82.03;92302.56;5070025;28;20256;-78
2021/12/02 07:28:04;;;;;;;56.13;34.07;;;;;;;1.78;81.43;92274.88;5070557;28;20247;-79
2021/12/02 07:30:30;;;;;;;42.97;31.23;;;;;;;1.89;81.99;92294.59;5070652;28;20245;-80
2021/12/02 07:32:58;;;;;;;57.27;43.50;;;;;;;2.09;81.59;92292.34;5069421;28;20224;-78
2021/12/02 07:35:25;;;;;;;44.60;34.50;;;;;;;2.13;81.13;92286.50;5070345;28;20186;-80
2021/12/02 07:37:54;;;;;;;28.57;22.10;;;;;;;2.39;79.73;92293.56;5069155;28;20236;-78
2021/12/02 07:40:22;;;;;;;19.87;17.87;;;;;;;2.54;77.95;92291.19;5086707;28;20200;-79
2021/12/02 07:42:51;;;;;;;17.67;15.97;;;;;;;2.83;75.96;92295.16;5068632;28;20240;-79
2021/12/02 07:45:18;;;;;;;19.60;17.50;;;;;;;2.74;76.93;92296.59;5068334;28;20193;-80
2021/12/02 07:47:44;;;;;;;16.60;14.93;;;;;;;2.80;77.46;92300.03;5071349;28;20225;-80
2021/12/02 07:50:13;;;;;;;16.63;15.00;;;;;;;2.67;77.47;92290.06;5068102;28;20223;-78
2021/12/02 07:52:49;;;;;;;16.87;15.33;;;;;;;2.53;76.80;92278.53;5070080;28;20229;-79
2021/12/02 07:55:16;;;;;;;16.90;15.13;;;;;;;2.81;76.38;92293.84;5068345;28;20235;-78
2021/12/02 07:57:43;;;;;;;18.13;13.73;;;;;;;2.98;75.91;92302.31;5070482;28;20267;-79
2021/12/02 08:00:11;;;;;;;16.70;15.07;;;;;;;3.08;75.98;92286.97;5068887;28;20286;-77
2021/12/02 08:02:37;;;;;;;17.40;15.90;;;;;;;3.18;74.88;92271.59;5068180;28;20226;-77
2021/12/02 08:05:04;;;;;;;16.77;14.97;;;;;;;3.26;74.42;92287.44;5070888;28;20194;-76
2021/12/02 08:07:30;;;;;;;15.30;14.10;;;;;;;3.37;74.72;92306.38;5067808;28;20224;-77
2021/12/02 08:09:55;;;;;;;16.40;14.97;;;;;;;3.48;73.98;92307.25;5071012;28;20201;-76
2021/12/02 08:12:21;;;;;;;15.47;14.13;;;;;;;3.55;73.83;92297.53;5069652;28;20236;-76
2021/12/02 08:14:46;;;;;;;14.30;13.20;;;;;;;3.66;73.46;92294.03;5067080;28;20201;-77
2021/12/02 08:17:11;;;;;;;16.80;15.20;;;;;;;3.63;72.74;92269.47;5069105;28;20249;-76
2021/12/02 08:19:37;;;;;;;23.47;17.93;;;;;;;3.87;72.42;92293.16;5068944;28;20186;-77
2021/12/02 08:22:02;;;;;;;19.97;16.23;;;;;;;3.98;71.78;92282.69;5069144;28;20233;-75
2021/12/02 08:24:28;;;;;;;18.27;16.47;;;;;;;4.22;70.33;92283.09;5068603;28;20212;-76
2021/12/02 08:26:54;;;;;;;20.13;16.10;;;;;;;4.53;68.57;92303.72;5068831;28;20232;-76
2021/12/02 08:29:21;;;;;;;14.63;13.30;;;;;;;4.51;68.25;92303.19;5069967;28;20182;-76
2021/12/02 08:31:47;;;;;;;15.90;14.17;;;;;;;4.18;69.17;92262.16;5066728;28;20247;-77
2021/12/02 08:34:12;;;;;;;19.17;16.27;;;;;;;4.37;68.69;92263.31;5068118;28;20745;-77
2021/12/02 08:36:49;;;;;;;18.00;16.10;;;;;;;4.49;67.67;92279.44;5067001;28;20229;-76
2021/12/02 08:39:22;;;;;;;16.30;14.73;;;;;;;4.55;67.23;92299.09;5069622;28;20173;-76
2021/12/02 08:41:49;;;;;;;15.93;14.23;;;;;;;4.47;68.40;92296.97;5066737;28;20229;-76
2021/12/02 08:44:16;;;;;;;15.80;14.23;;;;;;;4.53;67.76;92295.97;5068321;28;20205;-76
2021/12/02 08:46:42;;;;;;;15.10;13.80;;;;;;;4.50;68.44;92296.47;5067366;28;20226;-77
2021/12/02 08:49:08;;;;;;;15.53;14.00;;;;;;;4.40;68.69;92293.84;5069703;28;20220;-77
2021/12/02 08:51:33;;;;;;;16.70;15.13;;;;;;;4.27;69.03;92291.69;5068431;28;20251;-76
2021/12/02 08:53:59;;;;;;;14.87;13.57;;;;;;;4.50;67.76;92296.47;5066768;28;20212;-76
2021/12/02 08:56:24;;;;;;;16.00;14.07;;;;;;;4.36;68.36;92274.69;5067937;28;20240;-76
2021/12/02 08:58:51;;;;;;;15.57;14.17;;;;;;;4.54;67.86;92281.25;5070206;28;20260;-77
2021/12/02 09:01:17;;;;;;;15.87;14.57;;;;;;;4.25;68.75;92257.56;5064850;28;20237;-75
2021/12/02 09:03:42;;;;;;;14.37;13.10;;;;;;;4.26;69.53;92256.53;5047121;28;20178;-76
2021/12/02 09:06:11;;;;;;;16.10;14.43;;;;;;;4.29;68.72;92237.97;5049991;28;20226;-77
2021/12/02 09:08:36;;;;;;;16.07;14.67;;;;;;;4.39;68.77;92257.91;5050406;28;20190;-76
2021/12/02 09:11:03;;;;;;;16.23;14.63;;;;;;;4.34;68.01;92232.81;5049353;28;20190;-74
2021/12/02 09:13:29;;;;;;;15.80;14.20;;;;;;;4.45;69.13;92257.69;5048742;28;20182;-74
2021/12/02 09:15:55;;;;;;;14.60;13.53;;;;;;;4.54;68.43;92255.41;5049245;28;20190;-77
2021/12/02 09:18:20;;;;;;;13.77;12.57;;;;;;;4.44;66.55;92232.88;5048758;28;20257;-77
2021/12/02 09:20:46;;;;;;;13.30;12.17;;;;;;;4.60;65.80;92234.50;5048058;28;20190;-78
2021/12/02 09:23:13;;;;;;;13.97;12.87;;;;;;;4.50;66.58;92247.38;5048919;28;20221;-77
2021/12/02 09:25:39;;;;;;;13.27;11.87;;;;;;;4.41;67.87;92233.38;5047905;28;20196;-77
2021/12/02 09:28:05;;;;;;;14.50;13.03;;;;;;;4.39;67.97;92235.44;5048772;28;20228;-78
2021/12/02 09:30:30;;;;;;;14.67;13.47;;;;;;;4.49;68.00;92232.13;5048237;28;20190;-77
2021/12/02 09:32:56;;;;;;;15.10;13.60;;;;;;;4.52;67.57;92229.03;5056923;28;20259;-77
2021/12/02 09:35:22;;;;;;;13.80;12.60;;;;;;;4.41;68.10;92219.66;5055799;28;20182;-77
2021/12/02 09:37:47;;;;;;;14.50;13.30;;;;;;;4.54;66.79;92225.19;5064173;28;20217;-77
2021/12/02 09:40:15;;;;;;;15.03;13.67;;;;;;;4.49;66.33;92196.72;5068623;28;20205;-77
2021/12/02 09:42:42;;;;;;;15.20;13.97;;;;;;;4.96;66.63;92250.97;5067074;28;20217;-77
2021/12/02 09:45:08;;;;;;;16.63;15.07;;;;;;;5.02;66.14;92246.56;5067038;28;20204;-77
2021/12/02 09:47:40;;;;;;;16.13;14.43;;;;;;;4.79;66.74;92227.84;5067591;28;21059;-77
2021/12/02 09:50:18;;;;;;;17.10;15.53;;;;;;;4.83;66.20;92223.75;5067586;28;20264;-74
2021/12/02 09:52:45;;;;;;;17.37;15.87;;;;;;;4.75;67.03;92206.13;5068523;28;20227;-77
2021/12/02 09:58:00;;;;;;;17.07;15.37;;;;;;;5.02;67.64;92205.19;5068444;28;20224;-76
2021/12/02 10:00:54;;;;;;;19.53;17.47;;;;;;;5.27;65.80;92207.84;5068694;28;20217;-76
2021/12/02 10:03:35;;;;;;;19.33;17.00;;;;;;;5.08;66.32;92188.66;5067732;28;20248;-76
2021/12/02 10:06:07;;;;;;;16.80;15.23;;;;;;;5.42;64.90;92210.44;5069140;28;20193;-77
2021/12/02 10:08:41;;;;;;;17.00;15.03;;;;;;;5.32;64.81;92184.56;5069644;28;20289;-77
2021/12/02 10:11:11;;;;;;;15.97;14.53;;;;;;;5.54;64.94;92203.22;5067807;28;20196;-77
2021/12/02 10:13:57;;;;;;;14.57;11.97;;;;;;;5.53;63.33;92192.09;5068422;28;20185;-76
2021/12/02 10:19:09;;;;;;;14.30;12.17;;;;;;;5.46;63.31;92201.16;5068644;28;21197;-77
2021/12/02 10:22:04;;;;;;;14.80;13.53;;;;;;;5.23;64.66;92201.63;5068751;28;20221;-76
2021/12/02 10:24:28;;;;;;;14.43;13.13;;;;;;;5.23;64.22;92186.09;5068722;28;20200;-76
2021/12/02 10:26:57;;;;;;;14.00;12.70;;;;;;;5.32;65.37;92202.69;5068112;28;20217;-77
2021/12/02 10:29:27;;;;;;;13.57;12.47;;;;;;;5.17;64.90;92177.53;5070706;28;20200;-77
2021/12/02 10:32:09;;;;;;;14.50;13.30;;;;;;;5.27;63.73;92172.41;5066959;28;20247;-76
2021/12/02 10:34:55;;;;;;;13.67;12.37;;;;;;;5.45;64.15;92184.06;5067737;28;20200;-77
2021/12/02 10:37:27;;;;;;;15.40;13.90;;;;;;;5.47;64.33;92174.22;5068379;28;20225;-77
2021/12/02 10:40:03;;;;;;;14.90;13.77;;;;;;;5.61;63.35;92168.28;5068565;28;20190;-77
2021/12/02 10:42:31;;;;;;;14.87;13.30;;;;;;;5.44;63.81;92156.63;5067778;28;20221;-77
2021/12/02 10:45:01;;;;;;;14.37;13.20;;;;;;;5.97;60.50;92169.06;5068349;28;20193;-78
2021/12/02 10:47:27;;;;;;;16.13;13.23;;;;;;;5.85;60.50;92158.22;5065021;28;20228;-77
2021/12/02 10:49:56;;;;;;;14.03;12.67;;;;;;;5.59;61.87;92139.28;5069083;28;20197;-77
2021/12/02 10:52:24;;;;;;;14.13;13.10;;;;;;;5.86;61.80;92165.72;5066455;28;20237;-77
2021/12/02 10:54:56;;;;;;;14.30;13.13;;;;;;;5.65;63.43;92156.38;5067672;28;20215;-76
2021/12/02 10:57:25;;;;;;;15.17;13.87;;;;;;;5.75;61.22;92147.81;5067409;28;20213;-78
2021/12/02 10:59:53;;;;;;;16.40;14.80;;;;;;;5.62;62.96;92153.53;5066515;28;20186;-77
2021/12/02 11:02:31;;;;;;;14.70;13.40;;;;;;;5.64;63.64;92143.69;5067535;28;20238;-77
2021/12/02 11:05:02;;;;;;;15.77;14.17;;;;;;;5.61;62.82;92115.72;5068691;28;20186;-79
2021/12/02 11:07:30;;;;;;;14.67;13.40;;;;;;;5.85;61.61;92142.66;5067768;28;20224;-77
2021/12/02 11:09:59;;;;;;;14.70;13.33;;;;;;;6.12;60.96;92132.75;5067906;28;20201;-76
2021/12/02 11:12:30;;;;;;;16.57;15.03;;;;;;;5.92;59.82;92117.25;5067185;28;20225;-78
2021/12/02 11:14:57;;;;;;;15.33;14.10;;;;;;;5.97;61.17;92132.81;5067127;28;20197;-77
2021/12/02 11:17:29;;;;;;;14.67;13.37;;;;;;;5.97;60.68;92131.00;5072233;28;20213;-78
2021/12/02 11:19:54;;;;;;;16.13;14.57;;;;;;;5.43;62.90;92091.13;5071241;28;20200;-77
2021/12/02 11:22:22;;;;;;;16.03;14.73;;;;;;;5.69;62.79;92122.97;5071300;28;20233;-77
2021/12/02 11:24:49;;;;;;;16.10;14.67;;;;;;;5.80;61.79;92116.75;5072132;28;20208;-77
2021/12/02 11:27:22;;;;;;;17.23;15.57;;;;;;;5.60;62.98;92098.66;5069868;28;20243;-77
2021/12/02 11:30:00;;;;;;;15.13;13.73;;;;;;;5.54;61.55;92081.56;5071707;28;20190;-78
2021/12/02 11:32:37;;;;;;;16.27;14.73;;;;;;;5.93;61.65;92118.84;5070136;28;20227;-77
2021/12/02 11:35:23;;;;;;;14.37;13.07;;;;;;;5.99;61.51;92108.19;5071208;28;20799;-77
2021/12/02 11:38:02;;;;;;;14.73;13.50;;;;;;;5.86;61.25;92076.88;5079461;28;20288;-78
2021/12/02 11:40:31;;;;;;;15.83;14.27;;;;;;;5.97;61.71;92099.13;5071331;28;20204;-77
2021/12/02 11:42:57;;;;;;;15.57;13.97;;;;;;;5.96;63.00;92102.78;5071982;28;20257;-77
2021/12/02 11:45:26;;;;;;;16.97;15.33;;;;;;;6.04;62.66;92108.16;5071265;28;20185;-78